Time;durP1;ratioP1;P1;durP2;ratioP2;P2;SDS_P1;SDS_P2;PMS_P1;PMS_P2;Temp;Humidity;BMP_temperature;BMP_pressure;BME280_temperature;BME280_humidity;BME280_pressure;Samples;Min_cycle;Max_cycle;Signal;HPM_P1;HPM_P2
2023/08/17 00:00:30;;;;;;;17.15;6.78;;;;;;;16.85;70.19;100677.38;4946950;28;20110;-75
2023/08/17 00:02:56;;;;;;;16.42;7.25;;;;;;;16.75;70.42;100667.94;4947287;28;20051;-75
2023/08/17 00:05:21;;;;;;;16.05;7.57;;;;;;;16.71;69.97;100659.25;4946180;28;21922;-77
2023/08/17 00:07:49;;;;;;;21.50;8.10;;;;;;;16.76;70.13;100672.28;4947538;28;20117;-76
2023/08/17 00:10:14;;;;;;;18.35;7.13;;;;;;;16.75;70.55;100670.56;4929859;28;20481;-76
2023/08/17 00:12:40;;;;;;;15.57;7.22;;;;;;;16.72;70.41;100675.88;4945912;28;20063;-76
2023/08/17 00:15:06;;;;;;;14.13;7.07;;;;;;;16.77;70.33;100688.94;4953290;28;20043;-76
2023/08/17 00:17:32;;;;;;;16.63;6.60;;;;;;;16.76;70.44;100681.94;4947001;28;20054;-75
2023/08/17 00:19:58;;;;;;;13.45;7.00;;;;;;;16.55;70.42;100656.06;4961100;28;20043;-76
2023/08/17 00:22:24;;;;;;;10.57;6.95;;;;;;;16.72;70.36;100681.13;4951223;28;20049;-77
2023/08/17 00:24:50;;;;;;;14.55;7.32;;;;;;;16.70;70.43;100689.06;4961321;28;20054;-78
2023/08/17 00:27:16;;;;;;;11.57;6.97;;;;;;;16.50;70.59;100664.94;4946127;28;20051;-77
2023/08/17 00:29:43;;;;;;;11.68;6.82;;;;;;;16.62;70.65;100683.06;4943926;28;20039;-75
2023/08/17 00:32:08;;;;;;;10.60;6.70;;;;;;;16.64;70.86;100688.31;4945940;28;20093;-77
2023/08/17 00:34:35;;;;;;;12.77;7.00;;;;;;;16.51;70.76;100666.69;4913508;28;20134;-77
2023/08/17 00:37:01;;;;;;;10.60;6.45;;;;;;;16.50;71.07;100671.03;4946074;28;20457;-76
2023/08/17 00:39:27;;;;;;;10.32;6.55;;;;;;;16.64;70.84;100690.94;4944884;28;20046;-76
2023/08/17 00:41:53;;;;;;;12.70;6.93;;;;;;;16.58;71.02;100680.53;4960500;28;20039;-79
2023/08/17 00:44:19;;;;;;;14.68;7.00;;;;;;;16.44;70.57;100670.31;4953982;28;20569;-76
2023/08/17 00:46:47;;;;;;;13.18;6.70;;;;;;;16.52;71.24;100692.06;4931167;28;20414;-76
2023/08/17 00:49:13;;;;;;;16.23;6.85;;;;;;;16.51;71.15;100690.31;4945367;28;20046;-75
2023/08/17 00:51:40;;;;;;;11.65;6.25;;;;;;;16.51;71.26;100687.69;4930252;28;20047;-76
2023/08/17 00:54:07;;;;;;;15.73;6.55;;;;;;;16.47;71.15;100688.63;4935767;28;20050;-78
2023/08/17 00:56:33;;;;;;;19.10;7.00;;;;;;;16.29;71.31;100660.94;4943714;28;20071;-75
2023/08/17 00:58:59;;;;;;;16.98;6.90;;;;;;;16.37;71.40;100694.06;4927622;28;20067;-77
2023/08/17 01:01:25;;;;;;;19.58;6.78;;;;;;;16.08;71.52;100649.97;4962611;28;20043;-76
2023/08/17 01:03:51;;;;;;;13.63;7.28;;;;;;;16.23;71.19;100683.81;4961702;28;20138;-77
2023/08/17 01:06:18;;;;;;;14.27;6.90;;;;;;;16.35;71.48;100697.63;4946304;28;20103;-77
2023/08/17 01:08:45;;;;;;;12.32;6.13;;;;;;;16.28;71.46;100686.38;4946281;28;20039;-76
2023/08/17 01:11:27;;;;;;;14.10;6.30;;;;;;;16.35;71.12;100700.25;4949800;28;20165;-76
2023/08/17 01:14:09;;;;;;;12.15;6.57;;;;;;;16.31;71.04;100695.94;4950712;28;20071;-75
2023/08/17 01:16:42;;;;;;;16.73;6.07;;;;;;;16.17;71.26;100676.06;4959064;28;20047;-77
2023/08/17 01:19:12;;;;;;;16.92;6.55;;;;;;;16.26;71.41;100694.25;4946761;28;20071;-76
2023/08/17 01:21:43;;;;;;;13.25;6.88;;;;;;;16.24;71.44;100682.06;4947583;28;20632;-77
2023/08/17 01:24:09;;;;;;;14.77;6.85;;;;;;;16.28;71.26;100694.25;4957149;28;20035;-75
2023/08/17 01:26:34;;;;;;;13.73;7.15;;;;;;;16.31;71.27;100690.69;4951213;28;20031;-77
2023/08/17 01:29:00;;;;;;;10.15;6.63;;;;;;;16.32;71.41;100695.94;4930864;28;20035;-76
2023/08/17 01:31:40;;;;;;;17.05;7.57;;;;;;;16.34;71.35;100695.88;4963729;28;20062;-76
2023/08/17 01:34:13;;;;;;;22.52;8.73;;;;;;;16.23;71.12;100682.94;4930356;28;20095;-76
2023/08/17 01:36:58;;;;;;;;;;;;;;;16.26;71.53;100693.41;4950752;28;20042;-79
2023/08/17 01:39:30;;;;;;;17.30;6.85;;;;;;;16.21;71.28;100689.97;4931133;28;19922;-80
2023/08/17 01:42:00;;;;;;;13.80;6.80;;;;;;;16.18;71.89;100695.28;4917099;29;20047;-79
2023/08/17 01:44:27;;;;;;;14.00;6.70;;;;;;;16.20;71.44;100699.63;4949550;28;20611;-78
2023/08/17 01:46:53;;;;;;;10.32;6.38;;;;;;;16.19;71.43;100694.41;4950815;28;20063;-79
2023/08/17 01:49:22;;;;;;;21.25;6.72;;;;;;;16.05;71.37;100674.50;4933621;28;20042;-80
2023/08/17 01:51:49;;;;;;;14.32;6.20;;;;;;;15.93;71.77;100657.22;4934018;28;20043;-77
2023/08/17 01:54:15;;;;;;;15.20;6.55;;;;;;;15.65;71.60;100618.31;4938459;28;20054;-79
2023/08/17 01:56:41;;;;;;;16.75;8.15;;;;;;;16.14;71.55;100702.38;4949607;28;20145;-78
2023/08/17 01:59:07;;;;;;;24.60;7.28;;;;;;;16.12;71.60;100696.28;4933857;29;20050;-77
2023/08/17 02:01:33;;;;;;;11.35;6.63;;;;;;;15.95;71.67;100665.06;4950641;28;20047;-78
2023/08/17 02:04:02;;;;;;;22.00;7.50;;;;;;;16.09;71.40;100696.31;4948382;28;20050;-78
2023/08/17 02:06:30;;;;;;;30.23;7.68;;;;;;;16.10;71.82;100693.69;4932553;28;20102;-76
2023/08/17 02:08:58;;;;;;;14.07;6.80;;;;;;;16.03;72.09;100676.31;4948614;28;20048;-77
2023/08/17 02:11:24;;;;;;;14.50;6.30;;;;;;;16.15;71.86;100696.22;4951603;28;20401;-76
2023/08/17 02:13:51;;;;;;;12.23;6.88;;;;;;;16.11;71.73;100684.03;4948573;28;20051;-77
2023/08/17 02:16:16;;;;;;;12.10;7.07;;;;;;;16.17;71.74;100699.69;4933566;28;20093;-78
2023/08/17 02:19:03;;;;;;;18.33;7.28;;;;;;;16.09;71.39;100696.31;4949481;28;20066;-77
2023/08/17 02:21:29;;;;;;;35.53;8.80;;;;;;;15.96;71.52;100679.91;4945801;28;20094;-77
2023/08/17 02:23:55;;;;;;;20.98;8.15;;;;;;;16.09;71.61;100699.81;4949074;28;20047;-78
2023/08/17 02:26:24;;;;;;;20.00;7.85;;;;;;;16.05;71.87;100684.13;4949101;28;20134;-77
2023/08/17 02:28:50;;;;;;;23.40;9.00;;;;;;;16.01;71.67;100688.59;4945271;28;20111;-76
2023/08/17 02:31:16;;;;;;;46.88;19.48;;;;;;;15.93;71.88;100670.34;4946888;28;20142;-75
2023/08/17 02:33:42;;;;;;;24.13;9.10;;;;;;;16.23;72.00;100707.44;4947894;28;20066;-76
2023/08/17 02:36:08;;;;;;;21.23;9.20;;;;;;;16.16;71.73;100681.31;4949058;28;20039;-76
2023/08/17 02:38:34;;;;;;;22.40;8.00;;;;;;;16.34;71.71;100709.00;4931861;28;20035;-76
2023/08/17 02:41:00;;;;;;;17.20;7.50;;;;;;;16.39;71.85;100708.03;4928425;28;20122;-75
2023/08/17 02:43:26;;;;;;;19.60;8.05;;;;;;;16.49;71.65;100716.59;4949325;28;20051;-77
2023/08/17 02:45:52;;;;;;;29.17;8.02;;;;;;;16.26;71.27;100675.88;4949322;28;20046;-77
2023/08/17 02:48:19;;;;;;;23.95;7.35;;;;;;;16.55;71.48;100718.25;4950959;28;20038;-77
2023/08/17 02:50:45;;;;;;;14.52;7.47;;;;;;;16.59;71.44;100713.81;4928453;28;20043;-77
2023/08/17 02:53:11;;;;;;;14.18;7.53;;;;;;;16.62;71.38;100714.59;4950867;28;20085;-82
2023/08/17 02:55:37;;;;;;;13.95;6.85;;;;;;;16.62;71.48;100704.09;4965322;28;20413;-79
2023/08/17 02:58:03;;;;;;;16.25;7.35;;;;;;;16.67;71.40;100704.88;4949266;28;20039;-75
2023/08/17 03:00:29;;;;;;;19.90;7.30;;;;;;;16.79;71.57;100709.03;4937673;28;20047;-76
2023/08/17 03:02:56;;;;;;;16.38;7.15;;;;;;;16.80;71.40;100708.13;4960978;28;20047;-78
2023/08/17 03:05:22;;;;;;;15.30;7.47;;;;;;;16.82;71.35;100702.81;4913290;28;20061;-78
2023/08/17 03:07:48;;;;;;;12.95;7.28;;;;;;;16.88;71.55;100696.59;4947267;28;20035;-76
2023/08/17 03:10:14;;;;;;;16.58;6.88;;;;;;;16.99;71.38;100710.41;4936777;28;20046;-76
2023/08/17 03:12:40;;;;;;;17.30;7.30;;;;;;;16.97;71.30;100697.31;4944856;28;20043;-77
2023/08/17 03:15:06;;;;;;;16.35;8.10;;;;;;;17.08;71.31;100707.59;4947409;28;20094;-77
2023/08/17 03:17:34;;;;;;;15.00;6.97;;;;;;;17.04;71.47;100692.78;4931413;28;20150;-77
2023/08/17 03:20:00;;;;;;;11.80;6.65;;;;;;;17.25;71.43;100711.59;4948164;28;20541;-77
2023/08/17 03:22:26;;;;;;;20.45;7.85;;;;;;;17.25;71.01;100701.09;4931145;28;20129;-78
2023/08/17 03:24:55;;;;;;;19.00;8.40;;;;;;;17.44;71.21;100706.78;4931594;28;20070;-77
2023/08/17 03:27:21;;;;;;;19.73;8.10;;;;;;;17.50;71.21;100708.44;4947293;28;20118;-78
2023/08/17 03:29:47;;;;;;;17.42;8.88;;;;;;;17.36;71.36;100664.88;4911067;28;20039;-77
2023/08/17 03:32:13;;;;;;;13.38;7.63;;;;;;;17.60;71.05;100686.25;4947797;28;20046;-77
2023/08/17 03:34:39;;;;;;;21.35;8.02;;;;;;;17.57;70.99;100660.88;4947168;28;20039;-78
2023/08/17 03:37:06;;;;;;;15.82;7.38;;;;;;;17.56;70.75;100634.59;4932128;28;20073;-79
2023/08/17 03:39:33;;;;;;;20.67;8.75;;;;;;;17.98;70.62;100680.94;4944248;28;20061;-78
2023/08/17 03:41:59;;;;;;;14.98;8.52;;;;;;;18.27;70.45;100709.16;4947999;28;20043;-75
2023/08/17 03:44:25;;;;;;;16.98;8.00;;;;;;;18.46;70.38;100728.00;4945293;28;20494;-76
2023/08/17 03:46:51;;;;;;;16.58;8.10;;;;;;;18.43;70.26;100703.47;4927133;28;20502;-77
2023/08/17 03:49:17;;;;;;;17.30;8.50;;;;;;;18.44;70.07;100694.66;4960230;28;20443;-76
2023/08/17 03:51:43;;;;;;;17.48;8.80;;;;;;;18.72;69.87;100718.50;4930313;28;20043;-76
2023/08/17 03:54:11;;;;;;;24.42;9.07;;;;;;;18.71;70.10;100698.31;4961131;28;20405;-77
2023/08/17 03:56:37;;;;;;;18.42;8.40;;;;;;;18.95;70.11;100702.03;4947108;28;20055;-76
2023/08/17 03:59:03;;;;;;;20.58;8.50;;;;;;;19.21;69.91;100713.59;4946023;28;20102;-77
2023/08/17 04:01:29;;;;;;;18.23;8.15;;;;;;;19.32;69.75;100702.72;4949039;28;20043;-77
2023/08/17 04:03:55;;;;;;;15.82;8.15;;;;;;;19.65;69.41;100709.59;4944058;28;20039;-76
2023/08/17 04:06:21;;;;;;;16.90;9.15;;;;;;;19.66;69.01;100669.09;4948273;28;20042;-76
2023/08/17 04:08:48;;;;;;;17.08;8.55;;;;;;;20.05;68.45;100696.91;4944679;28;20599;-76
2023/08/17 04:11:14;;;;;;;16.50;9.43;;;;;;;20.24;68.03;100694.47;4963085;28;20158;-76
2023/08/17 04:13:40;;;;;;;19.65;9.00;;;;;;;20.53;68.07;100705.78;4946063;28;20490;-75
2023/08/17 04:16:06;;;;;;;19.95;9.02;;;;;;;20.62;67.66;100679.03;4942665;28;20047;-76
2023/08/17 04:18:32;;;;;;;16.38;9.35;;;;;;;20.91;66.93;100693.84;4930061;28;20054;-79
2023/08/17 04:20:57;;;;;;;21.88;9.95;;;;;;;21.28;66.12;100712.72;4962799;28;20046;-78
2023/08/17 04:23:24;;;;;;;15.68;9.18;;;;;;;21.49;66.16;100707.50;4946733;28;20043;-77
2023/08/17 04:25:51;;;;;;;18.27;9.32;;;;;;;21.60;65.29;100699.97;4937644;28;20528;-74
2023/08/17 04:28:16;;;;;;;16.55;9.38;;;;;;;21.76;64.84;100707.31;4947974;28;20039;-79
2023/08/17 04:30:43;;;;;;;18.98;9.85;;;;;;;21.81;64.16;100686.78;4913359;28;20054;-79
2023/08/17 04:33:09;;;;;;;19.23;10.48;;;;;;;22.05;63.34;100699.94;4924281;28;20505;-79
2023/08/17 04:35:35;;;;;;;13.13;9.32;;;;;;;22.29;63.13;100721.00;4949119;28;20047;-78
2023/08/17 04:38:01;;;;;;;15.27;9.35;;;;;;;22.52;62.43;100725.31;4934405;28;20042;-80
2023/08/17 04:40:28;;;;;;;15.27;9.35;;;;;;;22.70;61.92;100707.72;4964934;28;20043;-83
2023/08/17 04:42:57;;;;;;;19.58;9.05;;;;;;;22.81;60.76;100701.94;4948591;28;20043;-80
2023/08/17 04:45:23;;;;;;;13.60;9.05;;;;;;;23.10;60.27;100718.31;4953470;28;20126;-83
2023/08/17 04:47:49;;;;;;;13.30;7.97;;;;;;;23.27;59.57;100717.56;4950893;28;20122;-84
2023/08/17 04:50:16;;;;;;;12.60;8.57;;;;;;;23.47;58.96;100713.91;4939843;28;20069;-81
2023/08/17 04:52:44;;;;;;;15.48;8.32;;;;;;;23.65;58.28;100709.50;4968132;28;20046;-82
2023/08/17 04:55:10;;;;;;;14.77;8.45;;;;;;;23.84;57.84;100704.13;4950836;28;20059;-81
2023/08/17 04:57:36;;;;;;;17.33;9.15;;;;;;;24.04;57.22;100708.47;4953849;28;20039;-84
2023/08/17 05:00:03;;;;;;;14.98;8.60;;;;;;;24.13;56.69;100690.34;4939616;28;20142;-83
2023/08/17 05:02:30;;;;;;;13.13;7.82;;;;;;;24.12;56.17;100665.53;4952189;28;20035;-81
2023/08/17 05:04:57;;;;;;;13.93;8.10;;;;;;;24.41;55.84;100681.78;4950609;28;20045;-82
2023/08/17 05:07:23;;;;;;;15.98;8.45;;;;;;;24.51;55.19;100668.84;4925784;28;20053;-80
2023/08/17 05:09:50;;;;;;;14.35;8.48;;;;;;;24.77;54.39;100698.53;4949037;28;20039;-76
2023/08/17 05:12:16;;;;;;;13.13;8.70;;;;;;;24.98;54.31;100715.13;4953618;28;20039;-77
2023/08/17 05:14:43;;;;;;;16.55;8.30;;;;;;;25.06;53.92;100704.91;4970021;28;20035;-80
2023/08/17 05:17:10;;;;;;;11.88;8.02;;;;;;;25.15;53.27;100698.22;4953732;28;20141;-81
2023/08/17 05:19:38;;;;;;;14.20;7.90;;;;;;;25.42;53.17;100717.13;4937795;28;20043;-80
2023/08/17 05:22:04;;;;;;;12.70;7.72;;;;;;;25.65;52.74;100714.09;4960853;28;20049;-79
2023/08/17 05:24:30;;;;;;;14.52;7.32;;;;;;;25.88;52.35;100690.56;4919688;28;20043;-80
2023/08/17 05:26:55;;;;;;;11.90;6.95;;;;;;;26.68;51.99;100701.75;4969067;28;20065;-82
2023/08/17 05:29:22;;;;;;;13.38;6.05;;;;;;;28.24;51.34;100703.28;4970913;28;20531;-83
2023/08/17 05:31:48;;;;;;;14.95;6.10;;;;;;;30.42;47.96;100697.22;4938468;28;20046;-85
2023/08/17 05:34:14;;;;;;;8.90;5.80;;;;;;;32.40;43.83;100690.88;4937451;28;20038;-79
2023/08/17 05:36:41;;;;;;;8.35;5.30;;;;;;;33.92;40.25;100662.94;4955215;28;20043;-82
2023/08/17 05:39:07;;;;;;;8.88;5.57;;;;;;;35.44;37.27;100684.22;4952635;28;20617;-80
2023/08/17 05:41:33;;;;;;;12.32;5.53;;;;;;;36.77;34.88;100693.22;4954154;28;20793;-78
2023/08/17 05:43:59;;;;;;;12.10;5.00;;;;;;;37.81;32.45;100669.34;4936217;28;20039;-84
2023/08/17 05:46:27;;;;;;;7.50;4.05;;;;;;;38.80;30.65;100672.78;4939161;28;20119;-80
2023/08/17 05:48:54;;;;;;;10.50;4.55;;;;;;;39.71;29.70;100688.50;4913747;28;20054;-82
2023/08/17 05:51:23;;;;;;;9.55;4.88;;;;;;;40.58;27.74;100675.31;4977301;28;20059;-85
2023/08/17 05:53:51;;;;;;;9.27;4.30;;;;;;;41.04;26.95;100638.75;4964004;28;20103;-85
2023/08/17 05:56:18;;;;;;;7.07;4.55;;;;;;;42.20;25.33;100702.28;4956591;28;20043;-84
2023/08/17 05:58:44;;;;;;;10.15;4.68;;;;;;;43.07;24.13;100686.28;4957935;28;20046;-86
2023/08/17 06:01:11;;;;;;;6.05;3.65;;;;;;;43.79;23.08;100703.03;4953926;28;20039;-79
2023/08/17 06:03:37;;;;;;;6.18;3.83;;;;;;;44.26;21.71;100687.53;4949318;28;20054;-84
2023/08/17 06:06:05;;;;;;;5.13;4.28;;;;;;;44.89;20.58;100697.88;4955677;28;20050;-78
2023/08/17 06:08:31;;;;;;;7.38;4.28;;;;;;;45.06;20.30;100621.31;4932547;29;20573;-75
2023/08/17 06:10:57;;;;;;;7.40;4.22;;;;;;;46.14;19.49;100686.28;4933280;28;20066;-78
2023/08/17 06:13:23;;;;;;;5.90;3.53;;;;;;;46.94;18.03;100692.69;4949551;28;20069;-77
2023/08/17 06:15:49;;;;;;;6.13;3.80;;;;;;;47.53;17.77;100702.16;4949703;28;20039;-78
2023/08/17 06:18:15;;;;;;;8.20;4.00;;;;;;;48.04;17.05;100688.78;4945019;28;20178;-80
2023/08/17 06:20:41;;;;;;;7.75;4.57;;;;;;;48.17;16.36;100690.41;4966192;28;20046;-81
2023/08/17 06:23:07;;;;;;;5.75;3.85;;;;;;;48.46;16.02;100679.47;4952094;28;20083;-83
2023/08/17 06:25:34;;;;;;;8.60;3.25;;;;;;;48.85;15.84;100688.78;4967907;28;20041;-80
2023/08/17 06:28:00;;;;;;;4.95;3.10;;;;;;;49.12;15.34;100690.09;4951903;28;20045;-79
2023/08/17 06:30:27;;;;;;;4.10;3.53;;;;;;;49.08;15.24;100677.88;4937846;28;20068;-84
2023/08/17 06:32:53;;;;;;;5.57;3.70;;;;;;;49.55;14.33;100655.44;4935570;28;20146;-83
2023/08/17 06:35:19;;;;;;;6.03;3.88;;;;;;;49.92;14.78;100667.84;4950720;28;20042;-84
2023/08/17 06:37:45;;;;;;;7.05;4.00;;;;;;;50.57;13.72;100681.94;4953443;28;20042;-78
2023/08/17 06:40:13;;;;;;;7.85;4.10;;;;;;;50.60;13.57;100686.97;4952566;28;20638;-83
2023/08/17 06:42:39;;;;;;;8.43;4.47;;;;;;;50.85;13.99;100687.47;4965765;28;20042;-78
2023/08/17 06:45:06;;;;;;;7.72;3.80;;;;;;;51.01;13.33;100688.47;4949673;28;20398;-79
2023/08/17 06:47:32;;;;;;;9.20;4.85;;;;;;;51.64;13.33;100687.88;4949976;28;20142;-81
2023/08/17 06:49:58;;;;;;;5.82;3.70;;;;;;;51.94;12.86;100672.53;4951353;28;20042;-80
2023/08/17 06:52:26;;;;;;;8.57;3.57;;;;;;;52.48;12.32;100668.56;5001048;23;20058;-79
2023/08/17 06:54:52;;;;;;;4.32;3.10;;;;;;;52.92;12.22;100683.91;4989031;28;20074;-85
2023/08/17 06:57:21;;;;;;;5.45;3.08;;;;;;;52.89;11.58;100665.00;4973415;28;20035;-84
2023/08/17 06:59:47;;;;;;;;;;;;;;;53.35;10.95;100680.03;4977937;28;20038;-84
2023/08/17 07:02:13;;;;;;;6.03;3.60;;;;;;;53.65;11.32;100667.22;4984566;28;20096;-85
2023/08/17 07:04:39;;;;;;;9.25;3.30;;;;;;;53.64;11.04;100671.91;4968132;28;20053;-82
2023/08/17 07:07:05;;;;;;;4.43;3.28;;;;;;;53.87;10.21;100645.44;4973843;28;20035;-83
2023/08/17 07:09:31;;;;;;;7.18;3.25;;;;;;;53.59;10.46;100652.47;4974749;28;20089;-82
2023/08/17 07:11:59;;;;;;;3.83;3.20;;;;;;;53.50;9.72;100671.69;4972003;28;20648;-83
2023/08/17 07:14:25;;;;;;;7.67;3.57;;;;;;;53.26;10.13;100658.34;4955913;28;20121;-82
2023/08/17 07:16:51;;;;;;;8.50;3.90;;;;;;;53.26;10.28;100669.47;4971589;28;20038;-80
2023/08/17 07:19:17;;;;;;;4.07;2.75;;;;;;;53.19;10.34;100660.56;4968010;28;20515;-79
2023/08/17 07:21:43;;;;;;;6.55;3.22;;;;;;;53.56;10.12;100669.72;4937672;28;20101;-77
2023/08/17 07:24:15;;;;;;;6.25;3.80;;;;;;;54.11;9.29;100674.53;4970974;28;20525;-78
2023/08/17 07:26:41;;;;;;;12.50;3.95;;;;;;;54.48;9.83;100667.69;4969287;28;20103;-78
2023/08/17 07:29:07;;;;;;;5.00;3.70;;;;;;;55.16;9.56;100673.56;4970788;28;20035;-79
2023/08/17 07:31:33;;;;;;;5.55;3.92;;;;;;;55.13;8.80;100649.06;4970000;28;20039;-78
2023/08/17 07:34:00;;;;;;;6.25;3.25;;;;;;;55.16;9.01;100654.06;4969702;28;20730;-77
2023/08/17 07:36:27;;;;;;;6.55;3.15;;;;;;;54.70;9.35;100631.06;4949822;28;20546;-82
2023/08/17 07:38:53;;;;;;;4.70;3.10;;;;;;;55.30;8.75;100637.50;4961306;28;20263;-81
2023/08/17 07:41:20;;;;;;;4.55;3.35;;;;;;;54.94;9.17;100670.16;4970664;28;20194;-76
2023/08/17 07:43:46;;;;;;;3.10;2.87;;;;;;;54.99;9.08;100666.50;4987212;28;20425;-78
2023/08/17 07:46:12;;;;;;;3.08;2.67;;;;;;;54.99;8.21;100605.22;4938488;28;20301;-80
2023/08/17 07:48:38;;;;;;;4.97;4.60;;;;;;;55.85;8.11;100645.50;4969366;28;20085;-76
2023/08/17 07:51:04;;;;;;;8.75;7.97;;;;;;;56.39;7.57;100668.50;4970491;28;20047;-78
2023/08/17 07:53:30;;;;;;;9.40;8.45;;;;;;;56.69;7.90;100660.81;4984844;28;20476;-74
2023/08/17 07:55:56;;;;;;;5.97;5.38;;;;;;;57.09;7.82;100660.41;4961800;28;20046;-77
2023/08/17 07:58:21;;;;;;;10.07;9.18;;;;;;;56.97;7.06;100666.47;4969122;28;20421;-75
2023/08/17 08:00:47;;;;;;;5.95;3.20;;;;;;;57.05;6.61;100637.03;4963196;28;20497;-75
2023/08/17 08:03:15;;;;;;;7.13;4.70;;;;;;;57.02;7.30;100655.22;4982743;28;20097;-75
2023/08/17 08:05:41;;;;;;;4.50;3.60;;;;;;;56.98;7.59;100643.00;4952439;28;20049;-76
2023/08/17 08:08:07;;;;;;;7.80;6.22;;;;;;;56.58;7.09;100600.69;4947676;28;20034;-75
2023/08/17 08:10:32;;;;;;;3.63;3.33;;;;;;;56.84;6.96;100645.72;4968418;28;20065;-76
2023/08/17 08:12:58;;;;;;;8.35;7.30;;;;;;;56.33;7.75;100661.34;4964413;28;20042;-76
2023/08/17 08:15:24;;;;;;;11.45;8.70;;;;;;;56.95;7.42;100660.38;4968615;28;20078;-72
2023/08/17 08:17:50;;;;;;;6.95;3.72;;;;;;;57.21;7.45;100650.72;4969069;28;20643;-74
2023/08/17 08:20:16;;;;;;;12.45;11.20;;;;;;;57.83;7.01;100655.09;4966969;28;20069;-77
2023/08/17 08:22:42;;;;;;;3.90;3.50;;;;;;;58.09;6.81;100649.75;4960209;28;20070;-76
2023/08/17 08:25:08;;;;;;;4.15;3.22;;;;;;;57.61;6.86;100646.28;4966982;28;20035;-77
2023/08/17 08:27:34;;;;;;;4.10;3.20;;;;;;;57.38;6.83;100647.34;4965581;28;20038;-77
2023/08/17 08:30:00;;;;;;;5.63;3.33;;;;;;;57.09;6.86;100631.63;4965128;28;20042;-76
2023/08/17 08:32:26;;;;;;;4.32;3.72;;;;;;;57.31;7.29;100609.44;4967062;28;20053;-68
2023/08/17 08:34:54;;;;;;;5.95;5.07;;;;;;;57.57;7.02;100638.84;4982500;28;20073;-76
2023/08/17 08:37:20;;;;;;;7.28;5.90;;;;;;;57.63;6.83;100625.56;4985291;28;20034;-78
2023/08/17 08:39:53;;;;;;;5.50;4.95;;;;;;;57.18;6.94;100624.22;4971885;28;20053;-80
2023/08/17 08:42:20;;;;;;;5.07;4.63;;;;;;;56.77;6.71;100633.28;4970419;28;20473;-77
2023/08/17 08:44:46;;;;;;;4.47;3.53;;;;;;;57.27;6.58;100608.38;4950437;28;20122;-78
2023/08/17 08:47:13;;;;;;;3.92;3.50;;;;;;;57.75;6.48;100635.09;4970036;28;20051;-76
2023/08/17 08:49:40;;;;;;;3.92;3.47;;;;;;;57.37;6.25;100624.13;4951095;28;20042;-77
2023/08/17 08:52:16;;;;;;;14.05;6.60;;;;;;;57.44;6.50;100629.28;4966734;28;20067;-77
2023/08/17 08:54:49;;;;;;;7.90;5.68;;;;;;;58.02;6.67;100622.19;4968867;28;20081;-78
2023/08/17 08:57:17;;;;;;;9.35;4.78;;;;;;;58.44;6.75;100632.47;4966673;28;20109;-76
2023/08/17 08:59:45;;;;;;;5.80;3.95;;;;;;;57.95;6.90;100610.59;4968169;28;20054;-76
2023/08/17 09:02:16;;;;;;;8.27;4.22;;;;;;;57.23;6.90;100623.31;4968828;28;20043;-78
2023/08/17 09:04:45;;;;;;;11.15;5.95;;;;;;;57.08;7.17;100625.22;4951745;28;20042;-79
2023/08/17 09:07:17;;;;;;;10.45;5.45;;;;;;;57.35;7.08;100609.63;4955877;28;20101;-78
2023/08/17 09:09:45;;;;;;;17.17;5.75;;;;;;;57.93;6.52;100615.72;4952100;28;20493;-83
2023/08/17 09:12:11;;;;;;;3.78;3.47;;;;;;;57.52;6.47;100602.59;4971672;28;20039;-81
2023/08/17 09:14:37;;;;;;;4.28;3.88;;;;;;;57.56;6.71;100626.00;4976621;28;20100;-75
2023/08/17 09:17:07;;;;;;;6.93;4.60;;;;;;;57.71;6.63;100597.72;4975664;28;20034;-78
2023/08/17 09:19:34;;;;;;;4.63;3.55;;;;;;;57.86;6.47;100598.53;4973060;28;21282;-75
2023/08/17 09:22:03;;;;;;;3.92;3.63;;;;;;;57.05;6.75;100578.34;4971039;28;20166;-81
2023/08/17 09:24:38;;;;;;;4.38;3.97;;;;;;;57.47;6.59;100617.50;4969844;28;20034;-75
2023/08/17 09:27:04;;;;;;;5.72;4.25;;;;;;;57.55;6.19;100601.97;4951073;28;20425;-76
2023/08/17 09:29:36;;;;;;;4.95;3.72;;;;;;;56.54;6.78;100602.41;4963429;28;20066;-77
2023/08/17 09:32:07;;;;;;;4.47;4.07;;;;;;;56.36;7.38;100592.94;4961310;28;20042;-74
2023/08/17 09:34:32;;;;;;;7.20;4.07;;;;;;;55.64;7.74;100597.53;4968323;28;20049;-70
2023/08/17 09:37:05;;;;;;;6.60;3.85;;;;;;;56.18;7.69;100605.75;4985849;28;20039;-78
2023/08/17 09:39:32;;;;;;;3.60;3.30;;;;;;;55.92;7.07;100581.00;4969361;28;20151;-77
2023/08/17 09:42:00;;;;;;;4.55;3.30;;;;;;;56.40;7.48;100594.81;4961604;28;20122;-75
2023/08/17 09:44:26;;;;;;;3.42;3.22;;;;;;;56.43;6.99;100596.16;4970926;28;20047;-75
2023/08/17 09:46:56;;;;;;;4.38;3.42;;;;;;;56.81;7.00;100564.53;4949265;28;20066;-75
2023/08/17 09:49:24;;;;;;;5.97;4.10;;;;;;;57.00;6.95;100554.13;4985366;28;20042;-82
2023/08/17 09:51:53;;;;;;;5.00;3.00;;;;;;;56.27;7.11;100593.63;4971203;28;20184;-71
2023/08/17 09:54:26;;;;;;;5.07;3.25;;;;;;;55.88;6.83;100597.50;4972263;28;20505;-75
2023/08/17 09:56:53;;;;;;;5.43;3.35;;;;;;;56.39;7.32;100589.53;4959849;28;20093;-75
2023/08/17 09:59:20;;;;;;;5.78;3.60;;;;;;;55.87;7.43;100584.69;4951820;28;20037;-74
2023/08/17 10:01:48;;;;;;;4.43;3.40;;;;;;;56.47;7.02;100596.38;4968515;28;20050;-74
2023/08/17 10:04:18;;;;;;;;;;;;;;;56.94;6.88;100593.66;4972418;28;20043;-75
2023/08/17 10:06:47;;;;;;;3.67;3.38;;;;;;;56.85;7.27;100577.59;4987244;28;20017;-70
2023/08/17 10:09:16;;;;;;;7.00;3.22;;;;;;;56.79;6.38;100576.00;4969786;28;20504;-70
2023/08/17 10:11:45;;;;;;;4.50;3.22;;;;;;;56.62;5.90;100559.00;4968714;28;20077;-69
2023/08/17 10:14:21;;;;;;;6.18;3.00;;;;;;;56.21;6.91;100566.06;4964774;28;20042;-69
2023/08/17 10:16:57;;;;;;;3.70;3.35;;;;;;;55.30;6.92;100578.97;4959699;28;20432;-73
2023/08/17 10:19:58;;;;;;;3.28;2.97;;;;;;;54.57;7.17;100587.16;4966080;28;20055;-73
2023/08/17 10:22:52;;;;;;;4.32;3.00;;;;;;;54.59;6.95;100580.16;4966257;28;20529;-76
2023/08/17 10:25:20;;;;;;;6.43;2.90;;;;;;;54.37;7.75;100583.44;4928672;28;20062;-78
2023/08/17 10:27:47;;;;;;;4.13;3.03;;;;;;;54.44;7.20;100567.22;4964819;28;20046;-71
2023/08/17 10:30:13;;;;;;;4.15;3.20;;;;;;;54.60;7.31;100556.81;4960757;28;20423;-72
2023/08/17 10:32:44;;;;;;;4.85;2.70;;;;;;;54.78;6.69;100577.53;4965809;28;20045;-71
2023/08/17 10:35:11;;;;;;;5.20;2.78;;;;;;;53.27;7.28;100578.63;4966433;28;20092;-70
2023/08/17 10:37:38;;;;;;;4.53;2.60;;;;;;;52.08;8.57;100587.72;4966518;28;20788;-71
2023/08/17 10:40:05;;;;;;;2.90;2.60;;;;;;;50.23;9.15;100568.69;4955549;28;20043;-71
2023/08/17 10:42:36;;;;;;;4.03;2.70;;;;;;;48.59;9.99;100567.97;4961232;28;20198;-70
2023/08/17 10:45:22;;;;;;;4.38;2.83;;;;;;;46.95;11.44;100565.00;4966522;28;20035;-70
2023/08/17 10:47:47;;;;;;;3.33;2.60;;;;;;;45.44;11.81;100564.63;4938693;28;20732;-69
2023/08/17 10:50:24;;;;;;;2.92;2.28;;;;;;;43.85;12.92;100556.13;4980782;28;20129;-69
2023/08/17 10:52:53;;;;;;;4.88;3.70;;;;;;;42.92;13.46;100568.81;4972636;28;20054;-71
2023/08/17 10:55:36;;;;;;;5.97;2.65;;;;;;;41.90;15.00;100558.56;4966010;28;20086;-69
2023/08/17 10:58:02;;;;;;;5.70;2.53;;;;;;;41.03;15.55;100555.22;4966245;28;20241;-70
2023/08/17 11:00:36;;;;;;;5.00;2.47;;;;;;;40.21;16.14;100548.06;4964299;28;20050;-70
2023/08/17 11:03:11;;;;;;;2.38;2.13;;;;;;;39.16;16.98;100544.41;4966057;28;20038;-69
2023/08/17 11:05:51;;;;;;;4.80;2.70;;;;;;;37.87;17.62;100552.91;4948746;28;20042;-68
2023/08/17 11:08:31;;;;;;;3.67;2.63;;;;;;;37.34;18.85;100564.22;4964356;28;20038;-69
2023/08/17 11:10:58;;;;;;;4.88;2.45;;;;;;;37.00;19.06;100568.78;4965269;28;20038;-69
2023/08/17 11:13:28;;;;;;;4.07;2.60;;;;;;;36.68;19.20;100556.03;4940716;28;20552;-69
2023/08/17 11:15:53;;;;;;;5.57;2.88;;;;;;;36.43;19.60;100558.66;4965900;28;20051;-68
2023/08/17 11:18:19;;;;;;;6.10;3.25;;;;;;;36.10;20.05;100543.13;4947656;28;20039;-70
2023/08/17 11:20:46;;;;;;;4.70;2.50;;;;;;;35.84;20.65;100543.16;4965026;28;20043;-69
2023/08/17 11:23:12;;;;;;;5.53;2.92;;;;;;;35.49;20.74;100544.97;4980781;28;20669;-68
2023/08/17 11:25:38;;;;;;;5.05;2.75;;;;;;;34.99;21.13;100523.78;4965561;28;20047;-69